Airfield :
LOGIN :

Register | Disclaimer

   EN    FR    IT 

 










Legend :    VFR   Marginal VFR   IFR   Intensive IFR   Very Intensive IFR
Visi :
Ceiling :
>= 8 km
>= 3000ft
5 to 8 km
1000 to 3000 ft
1500m to 5 km
500 to 1000 ft
800 to 1500m
200 to 500 ft
< 800m
< 200 ft
Symbols :   Thunderstorms  Fog  Heavy snow  Heavy precipitations  Wind > 20 kt
SIGMETs :     Misc.  Thunderstorms  Icing  Turbulence  Mountain Waves  Volcanic Ashes






- Airport Elevation : 56 ft


LPOV - Ovar Air Base

CURRENT METAR :
  • 251700Z 28004KT 2000 -RADZ BR OVC002 14/14 Q1016

EXPIRED METARs :
  • 251600Z 27005KT 2000 -RADZ BR OVC002 14/14 Q1016
  • 251500Z 26006KT 2000 -RADZ BR OVC002 14/14 Q1015

TAF AMD TAF LPOV
Valid from the 25 at 14:00 until the 26 at 12:00 UTC


251422Z 2514/2612 26010KT 2000 -RADZ BR BKN002
PROB40
TEMPO 2514/2518 5000 SCT006 BKN014
BECMG 2518/2521 20008KT
TEMPO 2520/2612 1200 RADZ BR BKN002
BECMG 2605/2608 26010KT



MET'MAP, your aeronautical weather chart ! - Copyright ORBIFLY December 2007 - Disclaimer

ORBIFLY MET'MAP TEAM :

Programming & Development : Alexandra Zaïnal
Concept & original design : Baudouin d'Aumeries
Assistance for programming : Marc-Olivier Méhu
Technical & hardware support : Manuel Goepfert

Contact : metmap@orbifly.com




SOURCES & CREDITS :

   NOAA